Time;durP1;ratioP1;P1;durP2;ratioP2;P2;SDS_P1;SDS_P2;PMS_P1;PMS_P2;Temp;Humidity;BMP_temperature;BMP_pressure;BME280_temperature;BME280_humidity;BME280_pressure;Samples;Min_cycle;Max_cycle;Signal;HPM_P1;HPM_P2
2022/09/15 00:01:48;;;;;;;7.45;4.55;;;;;;;23.54;68.96;95559.48;359148;293;621628;-59
2022/09/15 00:03:50;;;;;;;4.85;4.37;;;;;;;23.53;68.98;95556.52;359401;294;621035;-58
2022/09/15 00:05:53;;;;;;;5.67;4.35;;;;;;;23.50;69.00;95557.28;359897;293;621115;-59
2022/09/15 00:07:55;;;;;;;6.95;4.53;;;;;;;23.51;69.01;95553.94;359569;293;620314;-56
2022/09/15 00:09:57;;;;;;;4.67;4.22;;;;;;;23.48;69.02;95555.47;359002;294;620901;-59
2022/09/15 00:11:59;;;;;;;4.85;4.40;;;;;;;23.47;69.03;95560.79;359975;294;620706;-58
2022/09/15 00:14:01;;;;;;;4.78;4.12;;;;;;;23.45;69.04;95557.62;359997;294;621288;-57
2022/09/15 00:16:04;;;;;;;5.25;4.28;;;;;;;23.43;69.08;95557.21;360128;294;620114;-59
2022/09/15 00:18:06;;;;;;;4.70;4.20;;;;;;;23.42;69.10;95558.39;359619;294;621027;-59
2022/09/15 00:20:08;;;;;;;4.67;4.28;;;;;;;23.41;69.10;95557.39;360537;293;621775;-58
2022/09/15 00:22:10;;;;;;;4.58;4.17;;;;;;;23.40;69.14;95557.19;359047;294;620227;-58
2022/09/15 00:24:13;;;;;;;4.45;4.15;;;;;;;23.37;69.14;95556.75;362850;291;621173;-58
2022/09/15 00:26:15;;;;;;;4.65;4.25;;;;;;;23.36;69.17;95557.13;359653;293;620310;-58
2022/09/15 00:28:17;;;;;;;4.37;4.05;;;;;;;23.33;69.18;95563.43;358456;293;622721;-55
2022/09/15 00:30:19;;;;;;;4.58;4.17;;;;;;;23.33;69.20;95557.91;358802;294;620276;-57
2022/09/15 00:32:21;;;;;;;5.05;4.65;;;;;;;23.31;69.21;95554.73;359010;294;621197;-59
2022/09/15 00:34:23;;;;;;;5.10;4.70;;;;;;;23.29;69.21;95549.59;359362;294;620553;-57
2022/09/15 00:36:25;;;;;;;5.00;4.60;;;;;;;23.28;69.24;95553.50;358310;294;620491;-57
2022/09/15 00:38:27;;;;;;;5.10;4.70;;;;;;;23.28;69.27;95564.55;358689;294;621919;-59
2022/09/15 00:40:30;;;;;;;5.50;4.87;;;;;;;23.27;69.30;95567.70;358284;294;621067;-58
2022/09/15 00:42:32;;;;;;;5.60;5.10;;;;;;;23.26;69.31;95566.12;359412;294;621486;-58
2022/09/15 00:44:34;;;;;;;5.12;4.62;;;;;;;23.24;69.33;95562.94;358460;294;621149;-58
2022/09/15 00:46:37;;;;;;;5.80;5.12;;;;;;;23.23;69.36;95566.88;358772;294;621510;-59
2022/09/15 00:48:39;;;;;;;5.30;4.90;;;;;;;23.23;69.37;95566.30;359144;293;621058;-59
2022/09/15 00:50:41;;;;;;;5.90;5.30;;;;;;;23.22;69.41;95570.83;358628;294;620204;-59
2022/09/15 00:52:44;;;;;;;5.87;5.37;;;;;;;23.21;69.42;95568.65;358364;294;618665;-56
2022/09/15 00:54:46;;;;;;;5.58;5.05;;;;;;;23.20;69.44;95575.94;358700;294;620394;-54
2022/09/15 00:56:48;;;;;;;5.72;5.22;;;;;;;23.20;69.48;95578.70;358542;294;621242;-57
2022/09/15 00:58:50;;;;;;;6.00;5.50;;;;;;;23.19;69.50;95575.73;357987;294;620828;-56
2022/09/15 01:00:54;;;;;;;6.35;5.75;;;;;;;23.18;69.53;95571.35;359013;294;620234;-57
2022/09/15 01:02:56;;;;;;;6.42;5.83;;;;;;;23.17;69.54;95582.20;358666;294;620478;-58
2022/09/15 01:04:58;;;;;;;8.00;6.10;;;;;;;23.16;69.56;95579.23;358338;294;621399;-57
2022/09/15 01:07:00;;;;;;;6.47;5.75;;;;;;;23.14;69.56;95581.59;359112;294;620581;-59
2022/09/15 01:09:02;;;;;;;6.65;6.05;;;;;;;23.14;69.58;95580.20;358554;294;621078;-57
2022/09/15 01:11:04;;;;;;;7.78;6.97;;;;;;;23.12;69.59;95575.06;358878;294;619607;-58
2022/09/15 01:13:07;;;;;;;7.10;6.40;;;;;;;23.12;69.62;95579.80;359386;294;621646;-58
2022/09/15 01:15:09;;;;;;;7.87;7.05;;;;;;;23.11;69.64;95575.45;359732;294;620543;-58
2022/09/15 01:17:11;;;;;;;8.23;7.20;;;;;;;23.08;69.66;95563.98;359538;294;620611;-58
2022/09/15 01:19:13;;;;;;;8.03;7.00;;;;;;;23.07;69.67;95561.02;358965;294;622957;-58
2022/09/15 01:21:16;;;;;;;7.87;7.03;;;;;;;23.06;69.69;95571.03;359240;293;620280;-59
2022/09/15 01:23:19;;;;;;;7.75;6.70;;;;;;;23.06;69.72;95569.06;359720;294;621308;-59
2022/09/15 01:25:21;;;;;;;8.90;7.33;;;;;;;23.04;69.74;95567.27;358918;294;621301;-57
2022/09/15 01:27:23;;;;;;;9.25;7.00;;;;;;;23.03;69.77;95567.06;358768;294;620330;-57
2022/09/15 01:29:25;;;;;;;8.45;7.15;;;;;;;23.02;69.77;95566.06;358769;294;620186;-54
2022/09/15 01:31:27;;;;;;;8.15;7.20;;;;;;;23.02;69.79;95564.69;358267;294;621355;-57
2022/09/15 01:33:30;;;;;;;8.58;7.65;;;;;;;23.01;69.81;95558.37;358959;294;620275;-59
2022/09/15 01:35:32;;;;;;;8.68;7.50;;;;;;;23.00;69.84;95560.13;359180;294;620200;-58
2022/09/15 01:37:35;;;;;;;9.18;7.90;;;;;;;22.98;69.90;95552.81;359230;294;620412;-57
2022/09/15 01:39:37;;;;;;;11.08;8.50;;;;;;;22.98;69.91;95547.28;359505;294;620751;-57
2022/09/15 01:41:41;;;;;;;10.45;8.25;;;;;;;22.96;69.93;95544.88;359483;294;620362;-57
2022/09/15 01:43:43;;;;;;;9.45;7.87;;;;;;;22.96;69.96;95549.02;359032;294;595682;-57
2022/09/15 01:45:45;;;;;;;9.33;7.85;;;;;;;22.96;69.96;95548.22;358911;294;621518;-56
2022/09/15 01:47:47;;;;;;;10.32;8.20;;;;;;;22.95;69.99;95543.29;358410;294;620190;-56
2022/09/15 01:49:50;;;;;;;10.85;8.50;;;;;;;22.95;70.00;95536.97;359100;294;621326;-57
2022/09/15 01:51:52;;;;;;;11.08;8.35;;;;;;;22.94;70.01;95537.55;359042;294;621830;-57
2022/09/15 01:53:54;;;;;;;11.78;8.80;;;;;;;22.94;70.05;95541.70;359477;294;620043;-57
2022/09/15 01:55:56;;;;;;;12.18;9.25;;;;;;;22.93;70.07;95549.78;358570;294;623170;-54
2022/09/15 01:57:58;;;;;;;11.90;9.38;;;;;;;22.91;70.07;95549.37;359494;293;621418;-55
2022/09/15 02:00:00;;;;;;;12.03;9.30;;;;;;;22.92;70.08;95555.10;359338;294;620230;-55
2022/09/15 02:02:02;;;;;;;13.80;9.50;;;;;;;22.92;70.12;95554.31;359140;294;619547;-59
2022/09/15 02:04:04;;;;;;;13.05;9.88;;;;;;;22.91;70.11;95559.04;359846;293;620400;-56
2022/09/15 02:06:07;;;;;;;13.90;9.50;;;;;;;22.89;70.14;95555.87;360529;293;621673;-57
2022/09/15 02:08:09;;;;;;;14.10;9.95;;;;;;;22.89;70.18;95560.02;362631;291;620148;-58
2022/09/15 02:10:11;;;;;;;14.07;9.78;;;;;;;22.90;70.21;95560.22;359043;294;623949;-58
2022/09/15 02:12:13;;;;;;;17.57;10.70;;;;;;;22.90;70.21;95556.08;359707;294;621324;-57
2022/09/15 02:14:17;;;;;;;18.23;11.25;;;;;;;22.89;70.23;95554.48;360448;294;621251;-58
2022/09/15 02:16:19;;;;;;;18.45;11.55;;;;;;;22.89;70.24;95553.11;360115;294;621129;-59
2022/09/15 02:18:21;;;;;;;19.60;11.22;;;;;;;22.91;70.22;95558.25;359855;292;620069;-59
2022/09/15 02:20:24;;;;;;;19.87;11.97;;;;;;;22.91;70.26;95560.42;359644;294;620519;-55
2022/09/15 02:22:26;;;;;;;21.07;11.75;;;;;;;22.91;70.24;95567.33;359769;294;621420;-58
2022/09/15 02:24:29;;;;;;;26.07;13.72;;;;;;;22.92;70.26;95568.13;359427;293;621717;-56
2022/09/15 02:26:31;;;;;;;22.42;12.35;;;;;;;22.92;70.28;95569.50;359590;294;621406;-55
2022/09/15 02:28:33;;;;;;;24.02;13.10;;;;;;;22.92;70.26;95571.68;360401;292;620349;-57
2022/09/15 02:30:35;;;;;;;24.25;12.82;;;;;;;22.93;70.19;95571.88;360367;294;620706;-58
2022/09/15 02:32:37;;;;;;;24.23;12.80;;;;;;;22.94;70.19;95573.47;360088;294;620077;-56
2022/09/15 02:34:39;;;;;;;27.93;13.78;;;;;;;22.95;70.14;95569.53;359850;294;620238;-59
2022/09/15 02:36:41;;;;;;;26.90;13.72;;;;;;;22.95;70.14;95572.30;359402;294;621310;-57
2022/09/15 02:38:44;;;;;;;25.85;14.05;;;;;;;22.96;70.12;95561.45;359710;294;621392;-59
2022/09/15 02:40:46;;;;;;;27.17;13.58;;;;;;;22.97;70.10;95568.59;359347;294;621810;-58
2022/09/15 02:42:48;;;;;;;28.07;13.65;;;;;;;22.98;70.07;95570.19;359736;294;620030;-59
2022/09/15 02:44:51;;;;;;;23.35;12.47;;;;;;;22.99;70.08;95566.83;360306;294;621319;-59
2022/09/15 02:46:53;;;;;;;23.90;12.65;;;;;;;22.99;70.06;95578.68;360402;294;621101;-58
2022/09/15 02:48:55;;;;;;;26.95;13.50;;;;;;;22.98;70.05;95574.33;359570;294;619525;-58
2022/09/15 02:50:58;;;;;;;27.20;13.93;;;;;;;23.01;70.04;95580.47;359643;294;619464;-58
2022/09/15 02:53:00;;;;;;;24.90;13.72;;;;;;;23.00;70.03;95571.97;359327;294;621291;-56
2022/09/15 02:55:02;;;;;;;26.12;13.45;;;;;;;23.02;70.02;95571.00;359542;294;621538;-58
2022/09/15 02:57:04;;;;;;;27.75;13.60;;;;;;;23.03;70.00;95569.03;360101;294;620820;-58
2022/09/15 02:59:06;;;;;;;24.92;12.63;;;;;;;23.03;69.99;95566.27;359745;294;620226;-55
2022/09/15 03:01:11;;;;;;;24.77;13.10;;;;;;;23.03;70.01;95568.45;359329;294;619281;-58
2022/09/15 03:03:12;;;;;;;25.88;13.03;;;;;;;23.02;70.03;95564.09;359270;294;594517;-58
2022/09/15 03:05:14;;;;;;;26.97;13.60;;;;;;;23.03;70.01;95564.89;359774;293;620969;-59
2022/09/15 03:07:17;;;;;;;25.23;13.43;;;;;;;23.01;70.01;95562.52;359653;294;622439;-58
2022/09/15 03:09:19;;;;;;;25.37;13.40;;;;;;;23.02;70.04;95559.95;359767;293;620236;-57
2022/09/15 03:11:21;;;;;;;26.95;13.15;;;;;;;23.02;70.03;95561.92;359571;293;620440;-55
2022/09/15 03:13:23;;;;;;;23.75;12.28;;;;;;;23.01;70.04;95568.03;359851;293;621929;-57
2022/09/15 03:15:25;;;;;;;26.10;12.95;;;;;;;23.01;70.06;95568.03;359868;293;619762;-57
2022/09/15 03:17:27;;;;;;;27.27;13.70;;;;;;;23.00;70.05;95567.83;359502;293;622010;-58
2022/09/15 03:19:30;;;;;;;24.35;13.15;;;;;;;22.98;70.02;95554.98;359312;293;620555;-58
2022/09/15 03:21:33;;;;;;;24.07;12.68;;;;;;;22.99;70.02;95555.78;359671;293;621150;-57
2022/09/15 03:23:35;;;;;;;25.97;13.15;;;;;;;22.97;70.02;95554.78;359949;293;621446;-57
2022/09/15 03:25:37;;;;;;;22.13;12.03;;;;;;;22.97;70.04;95556.75;360152;293;618772;-57
2022/09/15 03:27:40;;;;;;;26.75;13.25;;;;;;;22.97;70.06;95564.45;362529;290;620393;-58
2022/09/15 03:29:42;;;;;;;24.05;12.07;;;;;;;22.95;70.02;95557.10;362690;291;621763;-58
2022/09/15 03:31:44;;;;;;;26.05;12.93;;;;;;;22.96;70.04;95560.06;362496;291;621132;-58
2022/09/15 03:33:46;;;;;;;24.35;12.53;;;;;;;22.96;70.04;95555.13;362746;291;619984;-56
2022/09/15 03:35:48;;;;;;;25.90;12.55;;;;;;;22.96;70.02;95556.52;362564;291;621522;-58
2022/09/15 03:37:50;;;;;;;23.98;12.03;;;;;;;22.96;70.01;95565.59;362532;290;621639;-56
2022/09/15 03:39:53;;;;;;;25.08;12.88;;;;;;;22.96;70.01;95564.21;362684;291;620291;-56
2022/09/15 03:41:55;;;;;;;24.80;12.50;;;;;;;22.96;70.01;95565.59;362438;291;620226;-58
2022/09/15 03:43:57;;;;;;;25.70;12.70;;;;;;;22.96;70.00;95564.21;361967;291;621061;-56
2022/09/15 03:45:59;;;;;;;26.80;13.45;;;;;;;22.97;70.00;95569.98;362352;291;620117;-58
2022/09/15 03:48:02;;;;;;;26.77;12.35;;;;;;;22.97;69.97;95561.69;362454;291;621346;-57
2022/09/15 03:50:05;;;;;;;26.17;12.55;;;;;;;22.97;69.98;95564.45;362504;290;620530;-58
2022/09/15 03:52:07;;;;;;;25.80;12.60;;;;;;;22.96;69.97;95561.45;358985;294;621256;-59
2022/09/15 03:54:09;;;;;;;24.85;12.45;;;;;;;22.97;69.96;95563.66;362165;291;619382;-57
2022/09/15 03:56:12;;;;;;;28.35;13.83;;;;;;;22.97;69.97;95555.37;362625;291;620671;-59
2022/09/15 03:58:14;;;;;;;26.40;12.33;;;;;;;22.97;69.96;95560.89;362896;291;620407;-58
2022/09/15 04:00:16;;;;;;;25.32;13.05;;;;;;;22.97;69.97;95559.52;362787;291;619704;-55
2022/09/15 04:02:18;;;;;;;24.57;12.20;;;;;;;22.95;69.96;95566.77;362490;291;620188;-57
2022/09/15 04:04:20;;;;;;;24.70;12.10;;;;;;;22.96;69.99;95560.66;362597;291;621037;-59
2022/09/15 04:06:22;;;;;;;25.23;11.75;;;;;;;22.96;70.01;95564.21;362870;291;622337;-57
2022/09/15 04:08:24;;;;;;;23.35;11.75;;;;;;;22.96;70.00;95561.45;362514;291;619418;-59
2022/09/15 04:10:26;;;;;;;25.85;11.73;;;;;;;22.96;70.01;95563.42;363402;291;621421;-57
2022/09/15 04:12:31;;;;;;;21.00;10.78;;;;;;;22.96;70.00;95564.80;362798;291;620392;-58
2022/09/15 04:14:33;;;;;;;20.40;10.25;;;;;;;22.95;70.00;95569.53;363366;291;592746;-58
2022/09/15 04:16:35;;;;;;;23.35;11.70;;;;;;;22.95;70.01;95565.39;363225;291;618650;-58
2022/09/15 04:18:37;;;;;;;22.48;10.65;;;;;;;22.95;70.00;95560.45;362363;291;619554;-55
2022/09/15 04:20:39;;;;;;;19.77;10.88;;;;;;;22.95;70.01;95559.86;362694;291;621166;-55
2022/09/15 04:22:41;;;;;;;20.50;10.72;;;;;;;22.94;70.01;95560.25;363257;291;621271;-55
2022/09/15 04:24:43;;;;;;;18.87;9.95;;;;;;;22.95;70.00;95564.01;362516;291;621244;-58
2022/09/15 04:26:45;;;;;;;19.73;10.08;;;;;;;22.96;69.99;95567.56;359806;293;619183;-58
2022/09/15 04:28:48;;;;;;;18.32;10.08;;;;;;;22.97;69.99;95569.19;360754;293;621282;-58
2022/09/15 04:30:50;;;;;;;19.00;10.15;;;;;;;22.95;69.98;95559.86;360450;293;619294;-59
2022/09/15 04:32:52;;;;;;;21.55;10.45;;;;;;;22.96;69.97;95564.21;358646;294;621543;-60
2022/09/15 04:34:54;;;;;;;20.15;10.63;;;;;;;22.96;69.96;95567.56;359130;294;620152;-60
2022/09/15 04:36:57;;;;;;;20.35;10.20;;;;;;;22.96;69.95;95562.83;359810;294;620426;-58
2022/09/15 04:38:59;;;;;;;20.25;10.58;;;;;;;22.95;69.96;95566.77;359582;292;620945;-58
2022/09/15 04:41:01;;;;;;;20.75;9.85;;;;;;;22.96;69.96;95557.89;359066;294;620043;-58
2022/09/15 04:43:04;;;;;;;19.45;9.98;;;;;;;22.94;69.96;95557.48;359163;294;621424;-58
2022/09/15 04:45:06;;;;;;;18.65;9.58;;;;;;;22.94;69.96;95565.19;359986;294;620338;-57
2022/09/15 04:47:08;;;;;;;16.52;9.10;;;;;;;22.94;69.95;95564.39;359968;294;620383;-59
2022/09/15 04:49:10;;;;;;;18.07;10.10;;;;;;;22.94;69.96;95568.53;360369;292;620129;-54
2022/09/15 04:51:12;;;;;;;17.98;9.15;;;;;;;22.93;69.98;95567.73;359585;294;621201;-57
2022/09/15 04:53:14;;;;;;;19.20;9.90;;;;;;;22.93;69.97;95576.03;359596;294;620700;-56
2022/09/15 04:55:16;;;;;;;15.13;9.25;;;;;;;22.95;69.97;95574.27;359594;294;622410;-55
2022/09/15 04:57:19;;;;;;;17.40;8.70;;;;;;;22.94;69.94;95576.23;359227;294;621519;-59
2022/09/15 04:59:21;;;;;;;16.05;8.83;;;;;;;22.95;69.95;95573.68;359193;294;620886;-58
2022/09/15 05:01:23;;;;;;;17.23;8.98;;;;;;;22.94;69.93;95574.06;359780;294;620268;-57
2022/09/15 05:03:25;;;;;;;15.48;8.08;;;;;;;22.95;69.93;95579.20;359788;294;621240;-59
2022/09/15 05:05:27;;;;;;;17.20;8.95;;;;;;;22.94;69.92;95577.62;360459;294;620948;-58
2022/09/15 05:07:29;;;;;;;16.42;9.05;;;;;;;22.94;69.92;95578.20;360175;294;621394;-57
2022/09/15 05:09:31;;;;;;;17.27;8.55;;;;;;;22.94;69.92;95575.44;359705;293;621014;-59
2022/09/15 05:11:34;;;;;;;15.23;8.45;;;;;;;22.93;69.94;95575.23;362586;291;621433;-60
2022/09/15 05:13:36;;;;;;;18.60;9.23;;;;;;;22.94;69.93;95577.62;357758;295;621472;-56
2022/09/15 05:15:38;;;;;;;17.62;10.08;;;;;;;22.94;69.91;95579.00;359639;293;621167;-59
2022/09/15 05:17:40;;;;;;;16.23;8.83;;;;;;;22.94;69.91;95581.77;360119;293;620239;-58
2022/09/15 05:19:43;;;;;;;15.68;8.75;;;;;;;22.94;69.92;95585.91;358515;295;621182;-58
2022/09/15 05:21:45;;;;;;;15.43;7.92;;;;;;;22.95;69.90;95591.64;359725;293;620490;-58
2022/09/15 05:23:47;;;;;;;13.28;8.10;;;;;;;22.94;69.88;95585.91;360863;293;621617;-59
2022/09/15 05:25:49;;;;;;;16.27;9.33;;;;;;;22.94;69.88;95594.19;359037;294;620232;-58
2022/09/15 05:27:51;;;;;;;20.23;9.05;;;;;;;22.94;69.86;95590.05;360171;292;621522;-58
2022/09/15 05:29:53;;;;;;;17.07;9.13;;;;;;;22.94;69.86;95596.16;360286;293;620283;-58
2022/09/15 05:31:56;;;;;;;13.80;8.13;;;;;;;22.95;69.84;95600.52;359679;294;622388;-59
2022/09/15 05:33:58;;;;;;;16.70;9.40;;;;;;;22.95;69.86;95601.89;360440;293;620460;-58
2022/09/15 05:36:00;;;;;;;15.68;8.65;;;;;;;22.95;69.86;95600.52;360393;293;620550;-58
2022/09/15 05:38:02;;;;;;;17.30;9.13;;;;;;;22.93;69.86;95605.03;360738;293;621198;-57
2022/09/15 05:40:04;;;;;;;17.55;9.35;;;;;;;22.93;69.86;95603.66;359810;294;620603;-57
2022/09/15 05:42:07;;;;;;;18.17;9.00;;;;;;;22.92;69.86;95608.98;360381;293;619851;-58
2022/09/15 05:44:10;;;;;;;16.67;9.48;;;;;;;22.92;69.86;95616.47;360048;293;620438;-57
2022/09/15 05:46:12;;;;;;;18.50;9.48;;;;;;;22.92;69.88;95610.94;358179;295;620771;-58
2022/09/15 05:48:14;;;;;;;17.45;10.05;;;;;;;22.92;69.88;95609.56;359651;293;620644;-56
2022/09/15 05:50:16;;;;;;;17.85;9.68;;;;;;;22.90;69.89;95606.39;360196;293;620411;-56
2022/09/15 05:52:18;;;;;;;15.30;9.15;;;;;;;22.90;69.89;95610.53;358258;295;621337;-58
2022/09/15 05:54:20;;;;;;;19.98;10.10;;;;;;;22.89;69.89;95608.94;360062;293;621326;-54
2022/09/15 05:56:23;;;;;;;16.97;9.58;;;;;;;22.89;69.87;95611.12;360779;293;620835;-59
2022/09/15 05:58:25;;;;;;;18.60;9.93;;;;;;;22.89;69.89;95606.17;360007;292;620325;-58
2022/09/15 06:00:27;;;;;;;21.90;10.82;;;;;;;22.88;69.91;95608.15;362863;290;620794;-59
2022/09/15 06:02:29;;;;;;;19.55;10.03;;;;;;;22.88;69.90;95604.00;358689;294;623217;-58
2022/09/15 06:04:33;;;;;;;22.22;10.93;;;;;;;22.88;69.90;95599.86;362846;291;622001;-55
2022/09/15 06:06:35;;;;;;;20.85;10.80;;;;;;;22.88;69.91;95600.45;362978;291;620753;-59
2022/09/15 06:08:37;;;;;;;22.90;11.12;;;;;;;22.88;69.89;95601.24;362451;291;621604;-54
2022/09/15 06:10:39;;;;;;;22.32;11.12;;;;;;;22.90;69.87;95607.77;362254;291;622314;-59
2022/09/15 06:12:41;;;;;;;22.07;11.12;;;;;;;22.90;69.88;95606.39;361782;291;619598;-57
2022/09/15 06:14:44;;;;;;;21.45;11.30;;;;;;;22.89;69.86;95598.69;362414;291;621492;-58
2022/09/15 06:16:46;;;;;;;21.23;9.95;;;;;;;22.90;69.83;95596.72;362721;291;620002;-57
2022/09/15 06:18:49;;;;;;;22.10;11.12;;;;;;;22.90;69.83;95591.19;358686;293;620477;-57
2022/09/15 06:20:51;;;;;;;21.25;11.30;;;;;;;22.91;69.82;95585.88;359494;293;620465;-59
2022/09/15 06:22:54;;;;;;;25.17;12.15;;;;;;;22.91;69.81;95586.67;361935;291;620105;-55
2022/09/15 06:24:57;;;;;;;19.82;10.88;;;;;;;22.91;69.77;95590.81;362408;291;621992;-58
2022/09/15 06:26:59;;;;;;;18.67;10.80;;;;;;;22.91;69.70;95591.40;362408;291;621501;-57
2022/09/15 06:29:01;;;;;;;22.00;11.03;;;;;;;22.91;69.72;95586.67;362615;291;621435;-56
2022/09/15 06:31:03;;;;;;;19.37;10.53;;;;;;;22.92;69.67;95591.60;361757;291;621938;-58
2022/09/15 06:33:05;;;;;;;21.48;10.85;;;;;;;22.92;69.66;95588.84;362590;291;621405;-55
2022/09/15 06:35:07;;;;;;;20.43;11.25;;;;;;;22.91;69.66;95596.34;362179;291;620017;-58
2022/09/15 06:37:10;;;;;;;21.02;10.72;;;;;;;22.93;69.66;95598.72;362217;291;621365;-55
2022/09/15 06:39:12;;;;;;;18.80;10.70;;;;;;;22.92;69.64;95604.03;363028;290;621288;-57
2022/09/15 06:41:15;;;;;;;21.62;11.60;;;;;;;22.91;69.64;95607.98;362181;291;620874;-59
2022/09/15 06:43:17;;;;;;;21.45;10.95;;;;;;;22.92;69.63;95609.56;362761;291;621455;-57
2022/09/15 06:45:19;;;;;;;19.42;10.63;;;;;;;22.91;69.63;95610.15;362935;291;622472;-57
2022/09/15 06:47:21;;;;;;;22.15;12.18;;;;;;;22.90;69.65;95608.56;361970;291;621163;-57
2022/09/15 06:49:24;;;;;;;21.55;11.28;;;;;;;22.92;69.63;95613.13;362526;291;621546;-59
2022/09/15 06:51:34;;;;;;;21.05;11.25;;;;;;;22.92;69.62;95615.09;362751;291;621326;-57
2022/09/15 06:53:33;;;;;;;21.12;11.38;;;;;;;22.91;69.62;95617.05;363221;291;588038;-58
2022/09/15 06:55:35;;;;;;;22.70;12.37;;;;;;;22.92;69.61;95624.75;362776;291;621084;-58
2022/09/15 06:57:37;;;;;;;26.85;13.05;;;;;;;22.91;69.62;95617.05;362300;290;621271;-57
2022/09/15 06:59:40;;;;;;;22.85;12.45;;;;;;;22.91;69.61;95626.73;362173;291;619963;-56
2022/09/15 07:01:42;;;;;;;25.88;12.70;;;;;;;22.90;69.60;95623.75;361726;291;621603;-58
2022/09/15 07:03:44;;;;;;;24.52;13.08;;;;;;;22.91;69.60;95628.11;363032;291;621968;-58
2022/09/15 07:05:46;;;;;;;24.87;13.03;;;;;;;22.90;69.61;95625.14;362406;291;619895;-56
2022/09/15 07:07:48;;;;;;;25.48;13.58;;;;;;;22.91;69.59;95625.34;362835;290;621890;-55
2022/09/15 07:09:51;;;;;;;24.43;12.37;;;;;;;22.92;69.58;95636.60;363685;291;621430;-57
2022/09/15 07:11:53;;;;;;;25.45;13.15;;;;;;;22.91;69.58;95639.16;363138;291;619625;-58
2022/09/15 07:13:55;;;;;;;26.77;13.58;;;;;;;22.91;69.56;95630.08;363183;291;620225;-58
2022/09/15 07:15:57;;;;;;;25.82;13.32;;;;;;;22.91;69.57;95630.87;362951;291;619605;-59
2022/09/15 07:17:59;;;;;;;29.63;14.80;;;;;;;22.90;69.58;95630.66;362740;291;619994;-56
2022/09/15 07:20:02;;;;;;;29.92;15.00;;;;;;;22.91;69.58;95635.60;362702;291;621488;-58
2022/09/15 07:22:04;;;;;;;29.55;16.12;;;;;;;22.91;69.62;95635.02;362918;291;620778;-60
2022/09/15 07:24:06;;;;;;;29.87;14.47;;;;;;;22.90;69.62;95636.77;363144;291;620370;-59
2022/09/15 07:26:08;;;;;;;706.70;497.40;;;;;;;22.87;69.80;95635.56;362331;291;621370;-59
2022/09/15 07:28:10;;;;;;;556.13;336.02;;;;;;;22.86;70.04;95635.91;362356;291;620742;-61
2022/09/15 07:30:13;;;;;;;672.20;421.07;;;;;;;22.84;70.09;95639.64;363237;291;620602;-61
2022/09/15 07:32:15;;;;;;;916.85;582.42;;;;;;;22.83;70.12;95641.58;362902;291;619224;-60
2022/09/15 07:34:17;;;;;;;1073.85;662.80;;;;;;;22.84;70.28;95641.81;363524;291;621822;-58
2022/09/15 07:36:19;;;;;;;1094.38;659.90;;;;;;;22.86;70.39;95650.52;362338;291;620233;-60
2022/09/15 07:38:21;;;;;;;951.90;555.98;;;;;;;22.87;70.21;95649.37;363145;290;621204;-61
2022/09/15 07:40:24;;;;;;;1037.28;587.08;;;;;;;22.88;70.06;95652.34;363051;290;622256;-57
2022/09/15 07:42:27;;;;;;;1111.33;627.52;;;;;;;22.88;70.09;95652.34;362270;291;620507;-62
2022/09/15 07:44:29;;;;;;;1213.72;679.87;;;;;;;22.87;70.12;95657.66;362237;291;620480;-57
2022/09/15 07:46:31;;;;;;;1260.43;692.15;;;;;;;22.90;70.03;95659.67;362718;291;620444;-58
2022/09/15 07:48:33;;;;;;;1076.68;585.48;;;;;;;22.94;69.90;95666.03;359928;292;620630;-58
2022/09/15 07:50:35;;;;;;;1015.63;539.13;;;;;;;22.96;69.80;95669.20;358754;294;619962;-56
2022/09/15 07:52:37;;;;;;;951.05;490.10;;;;;;;22.98;69.72;95672.41;359301;293;621897;-59
2022/09/15 07:54:39;;;;;;;894.73;446.87;;;;;;;23.01;69.69;95675.80;360056;293;620811;-53
2022/09/15 07:56:42;;;;;;;790.23;372.90;;;;;;;23.03;69.58;95678.98;360863;293;620598;-56
2022/09/15 07:58:44;;;;;;;755.67;348.43;;;;;;;23.05;69.50;95671.10;360608;293;621259;-59
2022/09/15 08:00:48;;;;;;;638.42;271.45;;;;;;;23.07;69.46;95674.86;359597;294;619963;-55
2022/09/15 08:02:50;;;;;;;577.97;238.10;;;;;;;23.11;69.37;95679.08;359545;294;588464;-55
2022/09/15 08:04:52;;;;;;;535.02;194.62;;;;;;;23.11;69.30;95677.70;359547;294;621499;-56
2022/09/15 08:06:55;;;;;;;492.65;175.35;;;;;;;23.13;69.25;95683.05;359401;294;620618;-57
2022/09/15 08:08:57;;;;;;;441.88;146.35;;;;;;;23.13;69.18;95680.28;358953;294;620856;-57
2022/09/15 08:11:00;;;;;;;397.12;130.03;;;;;;;23.16;69.14;95688.41;359511;294;621757;-54
2022/09/15 08:13:02;;;;;;;350.20;112.32;;;;;;;23.16;69.09;95678.73;359520;294;620772;-58
2022/09/15 08:15:04;;;;;;;293.25;92.80;;;;;;;23.18;69.02;95689.64;359093;294;622662;-57
2022/09/15 08:17:07;;;;;;;273.65;86.50;;;;;;;23.17;68.98;95685.26;359575;294;620170;-54
2022/09/15 08:19:09;;;;;;;241.25;73.28;;;;;;;23.18;68.94;95688.27;359155;294;620750;-56
2022/09/15 08:21:11;;;;;;;203.05;62.83;;;;;;;23.19;68.88;95686.29;359371;294;621728;-56
2022/09/15 08:23:13;;;;;;;176.60;54.70;;;;;;;23.20;68.81;95680.97;359147;294;621164;-59
2022/09/15 08:25:15;;;;;;;156.63;50.23;;;;;;;23.19;68.79;95682.14;359243;294;621336;-55
2022/09/15 08:27:17;;;;;;;137.77;44.10;;;;;;;23.18;68.77;95680.52;359975;294;621165;-55
2022/09/15 08:29:19;;;;;;;122.72;41.18;;;;;;;23.18;68.76;95689.64;359739;292;621176;-55
2022/09/15 08:31:24;;;;;;;102.90;37.70;;;;;;;23.17;68.75;95690.78;359623;294;620508;-57
2022/09/15 08:33:26;;;;;;;103.07;37.33;;;;;;;23.18;68.72;95692.96;359868;294;593902;-56
2022/09/15 08:35:28;;;;;;;80.25;31.52;;;;;;;23.18;68.70;95696.55;359722;294;622128;-59
2022/09/15 08:37:30;;;;;;;83.20;33.58;;;;;;;23.17;68.67;95703.81;359597;293;621001;-57
2022/09/15 08:39:35;;;;;;;73.42;30.27;;;;;;;23.18;68.67;95706.78;359193;294;621345;-56
2022/09/15 08:41:36;;;;;;;60.25;27.93;;;;;;;23.16;68.66;95707.16;358834;294;590680;-60
2022/09/15 08:43:39;;;;;;;70.75;29.45;;;;;;;23.15;68.64;95706.16;359898;294;620621;-55
2022/09/15 08:45:41;;;;;;;57.98;27.45;;;;;;;23.13;68.65;95703.77;359684;294;620221;-54
2022/09/15 08:47:43;;;;;;;59.15;27.05;;;;;;;23.11;68.63;95703.36;359790;293;620153;-59
2022/09/15 08:49:45;;;;;;;52.80;25.70;;;;;;;23.11;68.64;95705.33;360181;294;619367;-58
2022/09/15 08:51:47;;;;;;;58.20;27.48;;;;;;;23.10;68.62;95699.01;360010;294;621435;-58
2022/09/15 08:53:49;;;;;;;57.23;26.55;;;;;;;23.11;68.62;95702.56;359900;294;619814;-58
2022/09/15 08:55:51;;;;;;;50.73;24.52;;;;;;;23.11;68.61;95706.71;359426;294;619486;-55
2022/09/15 08:57:53;;;;;;;48.90;25.40;;;;;;;23.08;68.58;95711.82;359262;294;620370;-58
2022/09/15 08:59:58;;;;;;;51.65;25.77;;;;;;;23.09;68.60;95708.47;359863;294;620400;-58
2022/09/15 09:01:59;;;;;;;47.13;24.65;;;;;;;23.07;68.57;95700.56;359570;294;589103;-58
2022/09/15 09:04:02;;;;;;;46.50;24.63;;;;;;;23.06;68.54;95710.00;359884;294;621213;-55
2022/09/15 09:06:04;;;;;;;45.83;23.50;;;;;;;23.05;68.56;95704.84;360304;294;619582;-56
2022/09/15 09:08:06;;;;;;;51.18;25.50;;;;;;;23.04;68.53;95709.58;359799;293;620287;-55
2022/09/15 09:10:08;;;;;;;48.10;24.23;;;;;;;23.02;68.56;95706.40;359967;293;621276;-56
2022/09/15 09:12:11;;;;;;;44.70;24.27;;;;;;;23.02;68.54;95711.92;359766;293;620006;-57
2022/09/15 09:14:13;;;;;;;46.88;24.70;;;;;;;23.01;68.54;95710.34;359664;293;619453;-58
2022/09/15 09:16:15;;;;;;;46.92;25.20;;;;;;;23.00;68.51;95707.37;360502;293;620281;-58
2022/09/15 09:18:20;;;;;;;43.58;24.90;;;;;;;23.01;68.50;95706.20;359924;293;621374;-56